Latest Weather Observations for Cape Grim

IDT60801

Issued at 8:31 am EST Friday 31 July 2015 (issued every 30 minutes, with the page automatically refreshed every 10 minutes)

About weather observations | Map of weather stations | Latest weather observations for TAS | Other Formats
Station Details ID: 091331 Name: CAPE GRIM Lat: -40.68 Lon: 144.69 Height: 86.0 m
Data from the previous 72 hours. | See also: Recent months at Cape Grim
Date/Time
EST
Temp
°C
App
Temp
°C
Dew
Point
Rel
Hum
%
Delta-T
°C
Wind Press
QNH
hPa
Press
MSL
hPa
Rain
since 9 am
mm
Dir
 
Spd
km/h
Gust
km/h
Spd
kts
Gust
kts
31/08:30am 8.4 1.3 3.5 71 2.1 W 30 44 16 24 1016.5 1016.6 5.6
31/08:00am 9.0 2.7 1.7 60 3.0 W 24 37 13 20 1016.2 1016.3 5.6
31/07:30am 8.9 1.9 1.8 61 3.0 W 28 41 15 22 1016.1 1016.2 5.6
31/07:00am 8.8 1.3 1.2 59 3.1 W 30 44 16 24 1015.9 1016.0 5.6
31/06:30am 8.8 1.1 2.4 64 2.7 W 32 46 17 25 1015.5 1015.6 5.6
31/06:18am 9.0 1.9 1.4 59 3.1 W 28 46 15 25 1015.5 1015.6 5.6
31/06:00am 8.5 2.4 2.9 68 2.4 WSW 24 39 13 21 1015.5 1015.6 5.6
31/05:31am 9.1 2.1 1.8 60 3.0 W 28 46 15 25 1015.4 1015.5 5.6
31/05:30am 9.1 2.1 2.0 61 3.0 W 28 39 15 21 1015.5 1015.6 5.6
31/05:00am 8.7 1.8 2.3 64 2.7 W 28 44 15 24 1015.2 1015.3 5.6
31/04:32am 8.8 2.0 3.0 67 2.5 WSW 28 52 15 28 1014.9 1015.0 5.6
31/04:30am 8.9 2.2 1.6 60 3.0 WSW 26 52 14 28 1015.0 1015.1 5.6
31/04:00am 8.8 1.9 2.8 66 2.6 WSW 28 54 15 29 1014.9 1015.0 5.6
31/03:53am 8.6 1.9 3.6 71 2.2 WSW 28 50 15 27 1014.8 1014.9 5.6
31/03:30am 8.2 0.5 3.3 71 2.1 WSW 33 48 18 26 1014.9 1015.0 5.6
31/03:25am 8.5 1.3 3.1 69 2.3 WSW 30 48 16 26 1014.9 1015.0 5.6
31/03:00am 8.5 1.6 2.7 67 2.5 W 28 43 15 23 1014.9 1015.0 5.6
31/02:30am 8.7 1.4 2.5 65 2.6 SW 30 57 16 31 1014.6 1014.7 5.6
31/02:00am 9.0 0.1 3.2 67 2.5 SW 39 65 21 35 1014.2 1014.3 5.6
31/01:52am 9.2 0.4 1.6 59 3.2 SW 37 56 20 30 1014.2 1014.3 5.6
31/01:30am 9.0 -1.2 1.2 58 3.2 SW 44 59 24 32 1014.1 1014.2 5.6
31/01:00am 8.6 1.0 2.6 66 2.5 WSW 32 50 17 27 1013.9 1014.0 5.6
31/12:49am 8.3 0.7 3.9 74 1.9 WSW 33 54 18 29 1013.8 1013.9 5.6
31/12:30am 8.5 -1.8 2.9 68 2.4 SW 46 72 25 39 1013.5 1013.6 5.2
31/12:29am 8.6 -1.6 3.0 68 2.4 SW 46 65 25 35 1013.5 1013.6 5.2
31/12:00am 8.7 -0.2 2.9 67 2.5 SW 39 63 21 34 1013.3 1013.4 5.2
 
Date/Time
EST
Temp
°C
App
Temp
°C
Dew
Point
Rel
Hum
%
Delta-T
°C
Wind Press
QNH
hPa
Press
MSL
hPa
Rain
since 9 am
mm
Dir
 
Spd
km/h
Gust
km/h
Spd
kts
Gust
kts
30/11:49pm 8.7 -2.0 2.7 66 2.5 SW 48 67 26 36 1013.1 1013.2 5.2
30/11:30pm 8.4 -2.9 3.5 71 2.1 SW 52 63 28 34 1013.1 1013.2 5.2
30/11:08pm 7.7 -1.9 3.6 75 1.8 SW 43 78 23 42 1013.0 1013.1 5.2
30/11:07pm 7.9 -1.6 4.1 77 1.7 SW 43 78 23 42 1012.9 1013.0 5.2
30/11:05pm 7.8 -1.7 4.0 77 1.6 SW 43 78 23 42 1012.9 1013.0 5.2
30/11:01pm 7.6 -4.1 3.5 75 1.8 SW 54 80 29 43 1013.0 1013.1 5.2
30/11:00pm 7.5 -4.8 3.4 75 1.7 SW 57 82 31 44 1013.0 1013.1 5.2
30/10:51pm 9.0 -2.6 3.8 70 2.3 SW 54 82 29 44 1012.5 1012.6 5.2
30/10:30pm 8.6 -3.0 3.8 72 2.1 SW 54 65 29 35 1012.1 1012.2 5.2
30/10:09pm 8.8 -3.7 4.0 72 2.1 SW 59 78 32 42 1011.5 1011.6 5.2
30/10:00pm 9.1 -3.9 3.7 69 2.4 SW 61 74 33 40 1011.5 1011.6 5.2
30/09:30pm 9.3 -3.8 2.9 64 2.7 SW 61 76 33 41 1010.5 1010.6 5.2
30/09:03pm 9.4 -4.3 3.6 67 2.5 SW 65 83 35 45 1009.9 1010.0 5.2
30/09:00pm 9.3 -4.9 3.3 66 2.6 SW 67 83 36 45 1009.7 1009.8 5.2
30/08:36pm 9.3 -5.1 4.3 71 2.2 SW 69 93 37 50 1009.0 1009.1 5.2
30/08:30pm 9.7 -5.1 4.9 72 2.2 SW 72 89 39 48 1008.8 1008.9 5.2
30/08:04pm 9.1 -4.9 6.0 81 1.4 SW 69 87 37 47 1007.8 1007.9 5.2
30/08:00pm 8.9 -5.7 5.8 81 1.4 SW 72 87 39 47 1007.6 1007.6 5.2
30/07:41pm 8.6 -2.3 5.7 82 1.3 SW 52 96 28 52 1006.8 1006.8 5.0
30/07:39pm 9.4 -0.1 6.7 83 1.3 WSW 46 87 25 47 1006.7 1006.7 5.0
30/07:30pm 9.6 1.0 6.5 81 1.4 W 41 69 22 37 1006.1 1006.1 5.0
30/07:19pm 8.9 -0.2 5.8 81 1.4 W 43 80 23 43 1006.3 1006.3 4.8
30/07:14pm 9.8 1.3 6.9 82 1.4 W 41 59 22 32 1006.1 1006.1 4.4
30/07:00pm 9.7 0.8 7.0 83 1.3 W 43 57 23 31 1006.2 1006.2 4.4
30/06:55pm 9.6 1.5 6.9 83 1.3 W 39 57 21 31 1006.4 1006.4 4.4
30/06:30pm 9.0 1.7 7.0 87 0.9 W 35 48 19 26 1005.9 1005.9 4.4
30/06:02pm 8.9 0.1 7.2 89 0.8 WSW 43 83 23 45 1005.4 1005.5 3.4
30/06:00pm 9.0 0.3 7.5 90 0.7 WSW 43 65 23 35 1005.5 1005.6 3.4
30/05:59pm 9.1 0.4 7.5 90 0.8 W 43 65 23 35 1005.5 1005.6 3.4
30/05:49pm 8.7 -2.8 7.0 89 0.8 W 57 83 31 45 1004.8 1004.9 2.8
30/05:45pm 9.2 -3.6 8.0 92 0.6 WNW 65 83 35 45 1004.4 1004.5 2.4
30/05:35pm 8.3 -4.1 6.3 87 0.9 NW 61 91 33 49 1004.2 1004.3 2.0
30/05:30pm 10.2 -0.7 8.8 91 0.7 NW 56 80 30 43 1003.8 1003.9 0.8
30/05:00pm 9.8 -2.2 8.1 89 0.8 NW 61 85 33 46 1004.2 1004.3 0.6
30/04:30pm 9.9 -1.5 7.7 86 1.1 NW 57 80 31 43 1004.5 1004.6 0.6
30/04:00pm 10.7 -2.1 6.3 74 2.1 NW 63 89 34 48 1004.9 1005.0 0.2
30/03:30pm 11.0 -2.3 5.7 70 2.5 NNW 65 83 35 45 1005.0 1005.1 0.2
30/03:00pm 10.7 -1.4 6.1 73 2.2 NNW 59 78 32 42 1005.5 1005.6 0.2
30/02:53pm 10.6 -1.4 6.6 76 1.9 NNW 59 78 32 42 1005.8 1005.8 0.2
30/02:30pm 10.2 -3.4 6.4 77 1.8 NNW 67 83 36 45 1006.4 1006.4 0.2
30/02:00pm 10.6 -2.7 5.6 71 2.3 NNW 65 93 35 50 1007.2 1007.2 0.0
30/01:40pm 10.5 -1.2 6.3 75 2.0 NNW 57 76 31 41 1007.3 1007.3 0.0
30/01:30pm 10.6 -0.7 7.1 79 1.7 NNW 56 72 30 39 1007.4 1007.4 0.0
30/01:00pm 10.7 -1.1 5.9 72 2.2 NNW 57 76 31 41 1008.5 1008.6 0.0
30/12:37pm 10.6 -0.5 6.2 74 2.1 NNW 54 72 29 39 1008.9 1009.0 0.0
30/12:30pm 10.5 -0.9 6.5 76 1.9 NNW 56 67 30 36 1009.1 1009.2 0.0
30/12:00pm 10.9 -0.9 5.7 70 2.4 NNW 57 78 31 42 1010.1 1010.2 0.0
30/11:35am 11.1 -0.6 5.4 68 2.6 NNW 56 74 30 40 1010.9 1011.0 0.0
30/11:30am 11.1 -0.7 5.6 69 2.5 NNW 57 74 31 40 1011.0 1011.1 0.0
30/11:02am 11.1 -1.2 5.2 67 2.7 NNW 59 78 32 42 1011.7 1011.8 0.0
30/11:00am 11.0 -0.9 5.1 67 2.7 NNW 57 74 31 40 1011.8 1011.9 0.0
30/10:38am 11.4 -0.2 5.7 68 2.7 NNW 56 74 30 40 1012.2 1012.3 0.0
30/10:30am 11.2 -1.1 5.3 67 2.7 NNW 59 76 32 41 1012.4 1012.5 0.0
30/10:00am 11.0 -0.7 5.1 67 2.7 NNW 56 74 30 40 1012.8 1012.9 0.0
30/09:43am 11.1 -0.6 5.4 68 2.6 NNW 56 74 30 40 1013.3 1013.4 0.0
30/09:30am 11.1 -0.8 5.4 68 2.6 NNW 57 72 31 39 1013.8 1013.9 0.0
30/09:00am 10.9 -0.4 5.4 69 2.5 NNW 54 72 29 39 1014.1 1014.2 2.4
30/08:32am 10.7 0.2 5.5 70 2.4 NNW 50 69 27 37 1014.5 1014.6 2.4
30/08:30am 10.7 0.2 5.7 71 2.3 NNW 50 65 27 35 1014.6 1014.7 2.4
30/08:17am 10.6 1.2 5.6 71 2.3 NNW 44 63 24 34 1014.9 1015.0 2.4
30/08:00am 10.5 0.8 5.7 72 2.2 NNW 46 59 25 32 1015.1 1015.2 2.4
30/07:36am 10.5 0.7 5.3 70 2.4 NNW 46 67 25 36 1015.1 1015.2 2.4
30/07:30am 10.6 0.1 5.8 72 2.2 NNW 50 65 27 35 1015.1 1015.2 2.4
30/07:00am 10.5 -0.4 5.3 70 2.4 NNW 52 65 28 35 1015.6 1015.7 2.4
30/06:30am 10.4 -0.1 5.6 72 2.2 NNW 50 61 27 33 1015.9 1016.0 2.4
30/06:00am 10.4 -0.5 5.6 72 2.2 NNW 52 63 28 34 1016.3 1016.4 2.4
30/05:30am 10.3 0.2 5.7 73 2.1 NNW 48 63 26 34 1017.0 1017.1 2.4
30/05:00am 10.5 0.1 5.9 73 2.1 NNW 50 59 27 32 1017.3 1017.5 2.4
30/04:30am 10.4 1.1 6.0 74 2.0 NNW 44 56 24 30 1018.0 1018.1 2.4
30/04:00am 10.4 0.7 5.8 73 2.1 NNW 46 57 25 31 1018.4 1018.5 2.4
30/03:30am 10.5 0.4 5.9 73 2.1 NNW 48 57 26 31 1018.9 1019.0 2.4
30/03:00am 10.3 0.6 5.7 73 2.1 NNW 46 59 25 32 1019.4 1019.5 2.4
30/02:30am 10.3 0.9 5.3 71 2.3 NNW 44 56 24 30 1019.7 1019.8 2.4
30/02:00am 10.5 0.0 5.7 72 2.2 NNW 50 61 27 33 1020.1 1020.2 2.4
30/01:30am 10.6 0.9 5.6 71 2.3 NNW 46 59 25 32 1020.3 1020.4 2.4
30/01:00am 10.7 1.0 5.7 71 2.3 NNW 46 57 25 31 1020.6 1020.7 2.4
30/12:30am 10.9 1.2 5.9 71 2.3 NNW 46 57 25 31 1021.2 1021.3 2.4
30/12:00am 10.9 0.5 6.1 72 2.2 NNW 50 59 27 32 1021.9 1022.0 2.4
 
Date/Time
EST
Temp
°C
App
Temp
°C
Dew
Point
Rel
Hum
%
Delta-T
°C
Wind Press
QNH
hPa
Press
MSL
hPa
Rain
since 9 am
mm
Dir
 
Spd
km/h
Gust
km/h
Spd
kts
Gust
kts
29/11:30pm 10.8 1.1 5.8 71 2.3 NNW 46 56 25 30 1022.3 1022.4 2.4
29/11:00pm 11.0 1.4 6.4 73 2.2 NNW 46 57 25 31 1022.5 1022.6 2.4
29/10:30pm 11.0 1.0 6.0 71 2.3 NNW 48 57 26 31 1023.0 1023.1 2.4
29/10:00pm 11.0 1.3 6.0 71 2.3 NNW 46 56 25 30 1023.2 1023.3 2.4
29/09:30pm 11.0 1.3 5.7 70 2.5 NNW 46 54 25 29 1023.5 1023.6 2.4
29/09:00pm 11.0 1.3 5.7 70 2.4 NNW 46 57 25 31 1023.6 1023.7 2.4
29/08:30pm 11.1 2.7 5.8 70 2.5 NNW 39 50 21 27 1023.9 1024.0 2.4
29/08:00pm 11.1 2.7 5.8 70 2.5 NW 39 54 21 29 1024.1 1024.2 2.4
29/07:30pm 11.1 3.1 5.8 70 2.5 NW 37 54 20 29 1024.2 1024.3 2.4
29/07:00pm 11.0 3.1 6.4 73 2.2 NW 37 52 20 28 1024.2 1024.3 2.4
29/06:30pm 11.2 3.8 6.7 74 2.1 NW 35 50 19 27 1024.0 1024.1 2.4
29/06:00pm 11.3 3.2 6.8 74 2.1 NW 39 52 21 28 1024.1 1024.2 2.4
29/05:37pm 11.1 3.4 7.0 76 2.0 NW 37 56 20 30 1024.1 1024.2 2.4
29/05:30pm 11.2 3.5 7.3 77 1.9 NW 37 48 20 26 1024.1 1024.2 2.4
29/05:00pm 11.2 4.4 7.1 76 2.0 NW 32 41 17 22 1024.3 1024.4 2.4
29/04:30pm 11.3 3.2 7.0 75 2.1 NW 39 50 21 27 1024.6 1024.7 2.4
29/04:00pm 11.5 3.3 6.4 71 2.4 WNW 39 56 21 30 1024.7 1024.8 2.4
29/03:30pm 11.4 2.5 6.7 73 2.2 WNW 43 54 23 29 1025.0 1025.1 2.4
29/03:00pm 11.2 4.1 7.9 80 1.6 WNW 35 48 19 26 1025.4 1025.5 2.4
29/02:30pm 10.7 4.0 8.3 85 1.2 NW 33 48 18 26 1025.6 1025.7 2.4
29/02:15pm 9.9 2.7 7.8 87 1.0 WNW 35 50 19 27 1025.9 1026.0 2.2
29/02:00pm 10.7 2.9 8.1 84 1.3 NW 39 56 21 30 1025.9 1026.0 1.8
29/01:57pm 11.1 4.1 8.3 83 1.4 NW 35 56 19 30 1026.0 1026.1 1.8
29/01:30pm 11.6 5.1 8.8 83 1.4 WNW 33 44 18 24 1026.4 1026.5 1.8
29/01:00pm 11.5 5.3 9.4 87 1.1 WNW 32 44 17 24 1027.0 1027.2 1.8
29/12:53pm 11.2 5.4 9.5 89 0.9 NW 30 39 16 21 1027.1 1027.3 1.8
29/12:42pm 11.0 5.5 9.3 89 0.9 NW 28 39 15 21 1027.3 1027.5 1.8
29/12:30pm 11.1 5.7 9.5 90 0.8 NW 28 41 15 22 1027.4 1027.6 1.8
29/12:10pm 10.8 5.3 9.2 90 0.8 NW 28 35 15 19 1027.8 1028.0 1.8
29/12:00pm 10.2 3.8 8.5 89 0.8 NW 32 43 17 23 1028.1 1028.3 1.8
29/11:42am 10.4 4.7 8.5 88 0.9 NW 28 37 15 20 1028.4 1028.6 0.8
29/11:30am 10.8 5.2 8.6 86 1.1 NW 28 43 15 23 1028.5 1028.7 0.4
29/11:00am 11.2 6.0 8.9 86 1.1 NW 26 37 14 20 1028.9 1029.1 0.4
29/10:30am 11.1 5.5 8.7 85 1.2 NW 28 39 15 21 1029.0 1029.2 0.4
29/10:09am 10.3 4.6 8.2 87 1.0 NW 28 46 15 25 1029.2 1029.4 0.4
29/10:00am 10.8 4.7 8.2 84 1.3 NW 30 37 16 20 1029.3 1029.5 0.0
29/09:30am 11.0 6.6 8.8 86 1.1 NW 22 28 12 15 1029.3 1029.5 0.0
29/09:00am 10.5 6.3 8.3 86 1.1 WNW 20 26 11 14 1029.4 1029.6 0.8
29/08:30am 10.1 4.7 8.0 87 1.0 NW 26 33 14 18 1029.6 1029.8 0.8
29/08:00am 10.3 5.3 8.1 86 1.1 NW 24 30 13 16 1029.9 1030.0 0.8
29/07:30am 9.9 4.8 7.7 86 1.1 WNW 24 33 13 18 1029.5 1029.7 0.8
29/07:00am 9.7 5.3 7.6 87 1.0 NW 20 28 11 15 1029.4 1029.6 0.8
29/06:30am 9.9 4.4 7.7 86 1.1 WNW 26 33 14 18 1029.4 1029.6 0.8
29/06:00am 9.3 4.0 6.9 85 1.1 WNW 24 33 13 18 1029.3 1029.5 0.6
29/05:30am 10.1 4.8 7.0 81 1.5 WNW 24 32 13 17 1029.3 1029.5 0.4
29/05:00am 10.0 4.2 6.3 78 1.7 WNW 26 35 14 19 1029.3 1029.5 0.4
29/04:30am 9.8 4.2 7.1 83 1.3 WNW 26 32 14 17 1029.3 1029.5 0.4
29/04:00am 9.9 4.7 7.2 83 1.3 WNW 24 32 13 17 1029.4 1029.6 0.4
29/03:30am 9.6 5.1 7.0 84 1.2 WNW 20 28 11 15 1029.5 1029.7 0.4
29/03:00am 9.0 4.7 6.8 86 1.0 WNW 19 26 10 14 1029.8 1029.9 0.4
29/02:30am 9.8 5.0 7.4 85 1.1 WNW 22 30 12 16 1030.1 1030.2 0.4
29/02:00am 8.6 5.7 6.4 86 1.0 WNW 11 15 6 8 1030.2 1030.3 0.4
29/01:30am 8.8 5.5 6.6 86 1.0 NW 13 17 7 9 1030.4 1030.5 0.4
29/01:00am 9.4 4.9 7.0 85 1.1 W 20 30 11 16 1030.3 1030.4 0.4
29/12:30am 9.2 4.2 6.6 84 1.2 WNW 22 28 12 15 1030.7 1030.8 0.4
29/12:00am 9.9 4.7 7.3 84 1.2 W 24 33 13 18 1030.8 1030.9 0.4
 
Date/Time
EST
Temp
°C
App
Temp
°C
Dew
Point
Rel
Hum
%
Delta-T
°C
Wind Press
QNH
hPa
Press
MSL
hPa
Rain
since 9 am
mm
Dir
 
Spd
km/h
Gust
km/h
Spd
kts
Gust
kts
28/11:30pm 9.7 6.2 7.3 85 1.1 W 15 22 8 12 1030.9 1031.0 0.4
28/11:00pm 9.4 5.0 7.2 86 1.0 W 20 28 11 15 1030.8 1030.9 0.4
28/10:48pm 9.4 6.3 7.3 87 1.0 W 13 17 7 9 1030.8 1030.9 0.4
28/10:30pm 9.5 4.6 7.1 85 1.1 W 22 33 12 18 1031.1 1031.2 0.4
28/10:00pm 10.1 5.3 7.2 82 1.4 W 22 33 12 18 1031.0 1031.1 0.0
28/09:30pm 9.4 4.1 6.8 84 1.2 W 24 35 13 19 1031.0 1031.1 0.0
28/09:00pm 10.5 6.3 7.4 81 1.5 W 19 32 10 17 1031.0 1031.1 0.0
28/08:30pm 10.0 5.2 7.3 83 1.3 WSW 22 35 12 19 1030.9 1031.0 0.0
28/08:00pm 10.4 5.3 7.5 82 1.4 W 24 35 13 19 1030.8 1030.9 0.0
28/07:30pm 10.6 4.4 7.7 82 1.4 W 30 56 16 30 1030.6 1030.7 0.0
28/07:28pm 10.8 4.9 7.7 81 1.5 W 28 46 15 25 1030.6 1030.7 0.0
28/07:00pm 10.7 4.8 7.4 80 1.6 W 28 41 15 22 1030.6 1030.7 0.0
28/06:30pm 10.7 5.2 7.4 80 1.6 W 26 37 14 20 1030.6 1030.7 0.0
28/06:00pm 10.6 5.1 7.5 81 1.5 W 26 39 14 21 1030.6 1030.7 0.0
28/05:30pm 10.4 4.5 7.3 81 1.5 W 28 44 15 24 1030.4 1030.5 0.0
28/05:00pm 10.8 5.3 7.5 80 1.6 W 26 37 14 20 1030.2 1030.3 0.0
28/04:30pm 10.7 5.5 7.2 79 1.7 W 24 41 13 22 1030.2 1030.3 0.0
28/04:00pm 11.0 5.1 7.5 79 1.7 W 28 44 15 24 1029.9 1030.0 0.0
28/03:30pm 11.1 5.3 7.8 80 1.6 W 28 41 15 22 1029.9 1030.0 0.0
28/03:00pm 10.7 4.8 7.6 81 1.5 W 28 50 15 27 1029.6 1029.8 0.0
28/02:58pm 11.0 4.8 7.9 81 1.5 W 30 50 16 27 1029.6 1029.8 0.0
28/02:30pm 10.8 4.6 7.9 82 1.4 W 30 44 16 24 1029.6 1029.8 0.0
28/02:00pm 10.9 4.3 7.6 80 1.6 W 32 48 17 26 1029.6 1029.8 0.0
28/01:43pm 11.3 4.7 7.8 79 1.7 W 32 50 17 27 1029.8 1029.9 0.0
28/01:30pm 11.2 4.7 8.1 81 1.5 W 32 46 17 25 1029.9 1030.0 0.0
28/01:17pm 11.3 4.6 8.2 81 1.5 W 33 52 18 28 1029.9 1030.0 0.0
28/01:00pm 11.1 5.0 8.1 82 1.5 W 30 44 16 24 1030.1 1030.2 0.0
28/12:30pm 10.6 4.0 7.8 83 1.4 WSW 32 54 17 29 1030.2 1030.3 0.0
28/12:00pm 10.7 4.2 8.1 84 1.3 W 32 52 17 28 1030.4 1030.5 0.0
28/11:30am 11.4 4.9 8.3 81 1.5 W 32 54 17 29 1030.5 1030.6 0.0
28/11:00am 10.9 5.2 8.5 85 1.2 WSW 28 56 15 30 1030.7 1030.8 0.0
28/10:37am 11.2 4.8 8.4 83 1.4 W 32 50 17 27 1030.5 1030.6 0.0
28/10:30am 11.1 4.5 8.5 84 1.3 W 33 46 18 25 1030.5 1030.6 0.0
28/10:00am 10.4 4.7 8.3 87 1.0 WSW 28 50 15 27 1030.4 1030.5 0.0
28/09:30am 10.9 4.5 8.7 86 1.1 W 32 52 17 28 1030.2 1030.3 0.0
28/09:01am 10.5 4.1 8.6 88 0.9 W 32 54 17 29 1030.0 1030.1 0.0
28/09:00am 10.3 4.2 8.4 88 0.9 W 30 54 16 29 1030.0 1030.1 6.4
28/08:41am 9.9 3.8 8.3 90 0.8 W 30 54 16 29 1030.1 1030.2 6.4

Other Formats:

Comma delimited format used in spreadsheet applications
http://www.bom.gov.au/fwo/IDT60801/IDT60801.95954.axf

JavaScript Object Notation format (JSON) in row-major order
http://www.bom.gov.au/fwo/IDT60801/IDT60801.95954.json